createdAt,value
2023-02-09T00:00:12.949Z,-2.58
2023-02-09T00:02:46.572Z,-2.62
2023-02-09T00:05:17.225Z,-2.61
2023-02-09T00:07:46.348Z,-2.61
2023-02-09T00:10:15.474Z,-2.66
2023-02-09T00:13:02.153Z,-2.70
2023-02-09T00:15:31.206Z,-2.61
2023-02-09T00:18:00.269Z,-2.68
2023-02-09T00:20:30.654Z,-2.73
2023-02-09T00:22:59.703Z,-2.70
2023-02-09T00:25:28.716Z,-2.75
2023-02-09T00:27:57.785Z,-2.72
2023-02-09T00:30:26.982Z,-2.73
2023-02-09T00:32:56.054Z,-2.75
2023-02-09T00:35:25.724Z,-2.86
2023-02-09T00:37:57.287Z,-2.82
2023-02-09T00:40:26.382Z,-2.81
2023-02-09T00:42:55.723Z,-2.90
2023-02-09T00:45:26.378Z,-2.82
2023-02-09T00:47:56.430Z,-2.83
2023-02-09T00:50:26.002Z,-2.86
2023-02-09T00:52:56.418Z,-2.83
2023-02-09T00:55:25.424Z,-2.87
2023-02-09T00:57:54.573Z,-2.83
2023-02-09T01:00:23.712Z,-2.84
2023-02-09T01:02:52.845Z,-2.91
2023-02-09T01:05:22.010Z,-2.87
2023-02-09T01:07:51.127Z,-2.90
2023-02-09T01:10:21.794Z,-2.98
2023-02-09T01:12:52.169Z,-2.96
2023-02-09T01:15:21.392Z,-2.99
2023-02-09T01:17:50.424Z,-2.97
2023-02-09T01:20:20.043Z,-3.00
2023-02-09T01:22:49.099Z,-3.04
2023-02-09T01:25:18.212Z,-3.02
2023-02-09T01:27:48.709Z,-3.00
2023-02-09T01:30:18.264Z,-3.03
2023-02-09T01:32:47.373Z,-3.11
2023-02-09T01:35:16.527Z,-3.06
2023-02-09T01:37:45.558Z,-3.00
2023-02-09T01:40:15.886Z,-3.01
2023-02-09T01:42:45.001Z,-3.02
2023-02-09T01:45:23.503Z,-2.97
2023-02-09T01:47:58.120Z,-2.93
2023-02-09T01:50:30.603Z,-2.88
2023-02-09T01:53:00.004Z,-3.02
2023-02-09T01:55:33.812Z,-2.98
2023-02-09T01:58:08.255Z,-3.03
2023-02-09T02:00:38.973Z,-3.02
2023-02-09T02:03:10.584Z,-2.96
2023-02-09T02:05:44.664Z,-2.99
2023-02-09T02:08:20.236Z,-2.95
2023-02-09T02:10:49.575Z,-2.99
2023-02-09T02:13:20.696Z,-3.00
2023-02-09T02:16:07.730Z,-2.94
2023-02-09T02:18:55.906Z,-2.95
2023-02-09T02:21:51.906Z,-2.95
2023-02-09T02:24:55.928Z,-3.05
2023-02-09T02:27:33.090Z,-2.98
2023-02-09T02:30:35.981Z,-2.99
2023-02-09T02:33:19.642Z,-3.04
2023-02-09T02:35:55.058Z,-3.00
2023-02-09T02:38:34.465Z,-2.97
2023-02-09T02:41:13.149Z,-3.05
2023-02-09T02:43:52.337Z,-3.07
2023-02-09T02:46:27.449Z,-3.11
2023-02-09T02:49:02.311Z,-3.19
2023-02-09T02:51:34.948Z,-3.10
2023-02-09T02:54:08.115Z,-3.16
2023-02-09T02:56:41.347Z,-3.08
2023-02-09T02:59:15.268Z,-3.11
2023-02-09T03:01:49.143Z,-3.16
2023-02-09T03:04:20.663Z,-3.18
2023-02-09T03:06:49.679Z,-3.18
2023-02-09T03:09:19.621Z,-3.22
2023-02-09T03:11:56.150Z,-3.23
2023-02-09T03:14:42.939Z,-3.25
2023-02-09T03:17:25.056Z,-3.21
2023-02-09T03:20:03.496Z,-3.21
2023-02-09T03:22:37.890Z,-3.19
2023-02-09T03:25:12.985Z,-3.27
2023-02-09T03:27:46.306Z,-3.27
2023-02-09T03:30:18.177Z,-3.35
2023-02-09T03:32:49.308Z,-3.35
2023-02-09T03:35:21.540Z,-3.27
2023-02-09T03:37:50.622Z,-3.35
2023-02-09T03:40:20.303Z,-3.38
2023-02-09T03:42:50.019Z,-3.43
2023-02-09T03:45:19.167Z,-3.41
2023-02-09T03:47:48.500Z,-3.45
2023-02-09T03:50:19.180Z,-3.49
2023-02-09T03:52:48.325Z,-3.46
2023-02-09T03:55:17.556Z,-3.43
2023-02-09T03:57:49.902Z,-3.48
2023-02-09T04:00:19.647Z,-3.48
2023-02-09T04:02:49.202Z,-3.48
2023-02-09T04:05:19.813Z,-3.43
2023-02-09T04:07:48.984Z,-3.45
2023-02-09T04:10:18.101Z,-3.43
2023-02-09T04:12:48.160Z,-3.52
2023-02-09T04:15:17.394Z,-3.48
2023-02-09T04:17:46.413Z,-3.50
2023-02-09T04:20:15.544Z,-3.49
2023-02-09T04:22:46.044Z,-3.51
2023-02-09T04:25:15.115Z,-3.40
2023-02-09T04:27:44.312Z,-3.39
2023-02-09T04:30:14.449Z,-3.38
2023-02-09T04:32:43.532Z,-3.44
2023-02-09T04:35:12.573Z,-3.39
2023-02-09T04:37:41.625Z,-3.39
2023-02-09T04:40:12.880Z,-3.38
2023-02-09T04:42:41.929Z,-3.44
2023-02-09T04:45:11.161Z,-3.42
2023-02-09T04:47:40.337Z,-3.30
2023-02-09T04:50:09.811Z,-3.38
2023-02-09T04:52:38.808Z,-3.39
2023-02-09T04:55:08.145Z,-3.37
2023-02-09T04:57:55.946Z,-3.36
2023-02-09T05:00:25.056Z,-3.35
2023-02-09T05:02:55.098Z,-3.35
2023-02-09T05:05:24.141Z,-3.40
2023-02-09T05:07:53.299Z,-3.38
2023-02-09T05:10:22.706Z,-3.34
2023-02-09T05:12:53.843Z,-3.27
2023-02-09T05:15:23.068Z,-3.32
2023-02-09T05:17:52.208Z,-3.25
2023-02-09T05:20:21.399Z,-3.27
2023-02-09T05:22:50.443Z,-3.28
2023-02-09T05:25:19.705Z,-3.32
2023-02-09T05:27:49.064Z,-3.23
2023-02-09T05:30:20.302Z,-3.16
2023-02-09T05:32:50.143Z,-3.13
2023-02-09T05:35:19.696Z,-3.15
2023-02-09T05:37:48.739Z,-3.04
2023-02-09T05:40:18.578Z,-3.03
2023-02-09T05:42:47.713Z,-2.94
2023-02-09T05:45:18.322Z,-2.93
2023-02-09T05:47:47.539Z,-2.87
2023-02-09T05:50:16.805Z,-2.88
2023-02-09T05:52:46.152Z,-2.91
2023-02-09T05:55:15.257Z,-2.89
2023-02-09T05:57:44.277Z,-2.89
2023-02-09T06:00:14.835Z,-2.91
2023-02-09T06:02:45.291Z,-2.89
2023-02-09T06:05:14.349Z,-2.97
2023-02-09T06:07:43.414Z,-2.92
2023-02-09T06:10:12.512Z,-2.82
2023-02-09T06:12:41.554Z,-2.91
2023-02-09T06:15:11.474Z,-2.90
2023-02-09T06:17:40.578Z,-2.91
2023-02-09T06:20:12.393Z,-2.95
2023-02-09T06:22:41.463Z,-2.98
2023-02-09T06:25:10.660Z,-2.98
2023-02-09T06:27:39.782Z,-2.99
2023-02-09T06:30:09.999Z,-3.01
2023-02-09T06:32:39.135Z,-3.08
2023-02-09T06:35:09.857Z,-3.02
2023-02-09T06:37:39.000Z,-3.02
2023-02-09T06:40:08.776Z,-3.07
2023-02-09T06:42:46.720Z,-3.10
2023-02-09T06:45:17.854Z,-3.05
2023-02-09T06:47:47.720Z,-3.04
2023-02-09T06:50:18.947Z,-3.01
2023-02-09T06:52:48.625Z,-3.00
2023-02-09T06:55:17.815Z,-3.03
2023-02-09T06:57:46.975Z,-2.96
2023-02-09T07:00:17.386Z,-2.88
2023-02-09T07:02:46.528Z,-2.72
2023-02-09T07:05:18.713Z,-2.78
2023-02-09T07:07:47.908Z,-2.69
2023-02-09T07:10:18.153Z,-2.61
2023-02-09T07:12:47.314Z,-2.63
2023-02-09T07:15:17.960Z,-2.64
2023-02-09T07:17:47.024Z,-2.56
2023-02-09T07:20:16.132Z,-2.55
2023-02-09T07:22:46.570Z,-2.53
2023-02-09T07:25:15.677Z,-2.55
2023-02-09T07:27:46.049Z,-2.49
2023-02-09T07:30:16.273Z,-2.39
2023-02-09T07:32:46.179Z,-2.26
2023-02-09T07:35:15.396Z,-2.16
2023-02-09T07:37:45.878Z,-1.89
2023-02-09T07:40:15.051Z,-1.81
2023-02-09T07:42:44.088Z,-1.69
2023-02-09T07:45:13.182Z,-1.61
2023-02-09T07:47:42.216Z,-1.31
2023-02-09T07:50:11.698Z,-1.13
2023-02-09T07:52:40.767Z,-0.91
2023-02-09T07:55:11.366Z,-1.00
2023-02-09T07:57:40.395Z,-0.78
2023-02-09T08:00:10.752Z,-0.67
2023-02-09T08:02:46.188Z,-0.65
2023-02-09T08:05:23.669Z,-0.47
2023-02-09T08:07:52.754Z,-0.43
2023-02-09T08:10:23.521Z,-0.41
2023-02-09T08:13:02.573Z,-0.34
2023-02-09T08:15:37.892Z,-0.31
2023-02-09T08:18:12.971Z,-0.33
2023-02-09T08:20:43.276Z,-0.26
2023-02-09T08:23:18.534Z,-0.21
2023-02-09T08:25:51.505Z,-0.22
2023-02-09T08:28:21.730Z,-0.16
2023-02-09T08:30:51.798Z,-0.13
2023-02-09T08:33:20.850Z,-0.09
2023-02-09T08:35:52.251Z,-0.09
2023-02-09T08:38:21.489Z,-0.04
2023-02-09T08:40:51.880Z,-0.01
2023-02-09T08:43:20.897Z,0.09
2023-02-09T08:45:50.788Z,0.09
2023-02-09T08:48:20.061Z,0.14
2023-02-09T08:50:49.809Z,0.18
2023-02-09T08:53:18.854Z,0.27
2023-02-09T08:55:49.570Z,0.42
2023-02-09T08:58:19.994Z,0.49
2023-02-09T09:00:49.113Z,0.47
2023-02-09T09:03:18.190Z,0.46
2023-02-09T09:05:47.442Z,0.63
2023-02-09T09:08:16.668Z,0.64
2023-02-09T09:10:45.741Z,0.51
2023-02-09T09:13:14.867Z,0.56
2023-02-09T09:15:45.856Z,0.56
2023-02-09T09:18:15.403Z,0.63
2023-02-09T09:20:44.708Z,0.79
2023-02-09T09:23:14.191Z,0.87
2023-02-09T09:25:44.642Z,0.85
2023-02-09T09:28:14.139Z,1.03
2023-02-09T09:30:44.652Z,1.37
2023-02-09T09:33:13.758Z,1.16
2023-02-09T09:35:42.976Z,1.25
2023-02-09T09:38:12.029Z,1.11
2023-02-09T09:40:42.775Z,1.05
2023-02-09T09:43:23.851Z,1.36
2023-02-09T09:45:54.349Z,1.29
2023-02-09T09:48:25.769Z,1.29
2023-02-09T09:50:57.908Z,1.44
2023-02-09T09:53:33.280Z,1.44
2023-02-09T09:56:06.432Z,1.36
2023-02-09T09:58:40.246Z,1.27
2023-02-09T10:01:15.120Z,1.50
2023-02-09T10:03:44.914Z,1.59
2023-02-09T10:06:17.659Z,1.77
2023-02-09T10:08:53.660Z,1.63
2023-02-09T10:11:27.003Z,1.87
2023-02-09T10:13:57.778Z,1.72
2023-02-09T10:16:30.375Z,1.67
2023-02-09T10:19:02.182Z,1.70
2023-02-09T10:21:34.064Z,1.99
2023-02-09T10:24:13.624Z,1.89
2023-02-09T10:26:43.548Z,1.91
2023-02-09T10:29:25.370Z,1.79
2023-02-09T10:32:04.192Z,1.94
2023-02-09T10:34:42.423Z,1.98
2023-02-09T10:37:19.258Z,2.03
2023-02-09T10:39:55.561Z,2.18
2023-02-09T10:42:29.430Z,2.24
2023-02-09T10:45:06.785Z,2.25
2023-02-09T10:47:37.235Z,2.26
2023-02-09T10:50:19.573Z,2.43
2023-02-09T10:53:01.090Z,2.65
2023-02-09T10:55:36.224Z,2.44
2023-02-09T10:58:11.636Z,2.21
2023-02-09T11:00:49.808Z,2.35
2023-02-09T11:03:22.748Z,2.52
2023-02-09T11:06:01.375Z,2.63
2023-02-09T11:08:42.751Z,2.70
2023-02-09T11:11:22.941Z,2.58
2023-02-09T11:13:52.174Z,2.56
2023-02-09T11:16:45.336Z,2.49
2023-02-09T11:19:31.316Z,2.67
2023-02-09T11:22:08.773Z,2.73
2023-02-09T11:24:52.194Z,2.73
2023-02-09T11:27:32.126Z,2.84
2023-02-09T11:30:16.415Z,2.77
2023-02-09T11:32:52.764Z,2.82
2023-02-09T11:35:27.756Z,2.82
2023-02-09T11:38:01.981Z,3.12
2023-02-09T11:40:37.365Z,3.13
2023-02-09T11:43:15.900Z,2.84
2023-02-09T11:45:47.199Z,3.19
2023-02-09T11:48:24.928Z,3.50
2023-02-09T11:51:08.269Z,3.40
2023-02-09T11:53:43.668Z,3.26
2023-02-09T11:56:14.768Z,3.46
2023-02-09T11:58:53.324Z,3.42
2023-02-09T12:01:36.651Z,3.66
2023-02-09T12:04:14.941Z,3.70
2023-02-09T12:06:50.734Z,3.73
2023-02-09T12:09:36.718Z,3.51
2023-02-09T12:12:14.387Z,3.78
2023-02-09T12:15:13.636Z,3.35
2023-02-09T12:17:49.060Z,3.25
2023-02-09T12:20:31.106Z,3.16
2023-02-09T12:23:05.635Z,3.15
2023-02-09T12:25:54.605Z,3.28
2023-02-09T12:28:46.549Z,3.15
2023-02-09T12:31:25.692Z,3.13
2023-02-09T12:34:12.393Z,3.25
2023-02-09T12:37:16.940Z,3.34
2023-02-09T12:40:20.070Z,3.30
2023-02-09T12:43:15.317Z,3.24
2023-02-09T12:45:45.920Z,3.14
2023-02-09T12:48:19.307Z,3.18
2023-02-09T12:50:54.688Z,3.07
2023-02-09T12:53:50.435Z,2.92
2023-02-09T12:56:31.659Z,3.05
2023-02-09T12:59:32.393Z,2.93
2023-02-09T13:02:25.917Z,2.90
2023-02-09T13:05:03.225Z,2.95
2023-02-09T13:07:49.054Z,2.97
2023-02-09T13:10:26.507Z,3.00
2023-02-09T13:12:59.556Z,2.96
2023-02-09T13:15:46.670Z,2.97
2023-02-09T13:18:21.149Z,3.03
2023-02-09T13:21:13.969Z,3.00
2023-02-09T13:23:54.632Z,2.97
2023-02-09T13:26:26.648Z,2.95
2023-02-09T13:29:19.772Z,2.93
2023-02-09T13:32:01.821Z,2.96
2023-02-09T13:34:39.005Z,2.89
2023-02-09T13:37:18.764Z,2.90
2023-02-09T13:39:57.322Z,2.91
2023-02-09T13:42:29.558Z,3.03
2023-02-09T13:45:00.071Z,2.93
2023-02-09T13:47:30.569Z,2.99
2023-02-09T13:50:01.813Z,2.89
2023-02-09T13:52:39.109Z,2.87
2023-02-09T13:55:19.355Z,2.85
2023-02-09T13:57:55.525Z,2.99
2023-02-09T14:00:27.884Z,3.04
2023-02-09T14:03:01.416Z,3.06
2023-02-09T14:05:39.435Z,3.06
2023-02-09T14:08:10.280Z,3.06
2023-02-09T14:10:42.179Z,2.94
2023-02-09T14:13:19.919Z,3.16
2023-02-09T14:16:06.937Z,3.19
2023-02-09T14:18:47.697Z,3.19
2023-02-09T14:21:24.237Z,3.14
2023-02-09T14:24:17.703Z,2.83
2023-02-09T14:26:55.961Z,2.92
2023-02-09T14:29:28.737Z,2.85
2023-02-09T14:31:59.612Z,2.79
2023-02-09T14:34:38.592Z,2.74
2023-02-09T14:37:30.297Z,2.78
2023-02-09T14:40:05.895Z,2.73
2023-02-09T14:42:39.336Z,2.77
2023-02-09T14:45:36.476Z,2.71
2023-02-09T14:48:17.805Z,2.71
2023-02-09T14:50:48.889Z,2.65
2023-02-09T14:53:19.114Z,2.63
2023-02-09T14:55:48.608Z,2.63
2023-02-09T14:58:23.321Z,2.63
2023-02-09T15:00:54.554Z,2.63
2023-02-09T15:03:24.108Z,2.62
2023-02-09T15:05:59.418Z,2.62
2023-02-09T15:08:32.366Z,2.60
2023-02-09T15:11:26.390Z,2.58
2023-02-09T15:13:59.531Z,2.58
2023-02-09T15:16:28.658Z,2.57
2023-02-09T15:18:57.810Z,2.58
2023-02-09T15:21:28.256Z,2.58
2023-02-09T15:23:57.308Z,2.59
2023-02-09T15:26:27.695Z,2.59
2023-02-09T15:28:56.745Z,2.61
2023-02-09T15:31:25.842Z,2.61
2023-02-09T15:33:55.388Z,2.62
2023-02-09T15:36:25.741Z,2.64
2023-02-09T15:38:56.680Z,2.61
2023-02-09T15:41:44.703Z,2.63
2023-02-09T15:44:35.503Z,2.62
2023-02-09T15:47:22.752Z,2.57
2023-02-09T15:49:51.835Z,2.61
2023-02-09T15:52:21.269Z,2.61
2023-02-09T15:54:53.761Z,2.59
2023-02-09T15:57:25.137Z,2.58
2023-02-09T15:59:54.301Z,2.53
2023-02-09T16:02:23.587Z,2.47
2023-02-09T16:04:52.938Z,2.41
2023-02-09T16:07:40.127Z,2.35
2023-02-09T16:10:16.711Z,2.29
2023-02-09T16:12:46.192Z,2.21
2023-02-09T16:15:17.511Z,2.22
2023-02-09T16:17:46.596Z,2.27
2023-02-09T16:20:16.297Z,2.22
2023-02-09T16:22:47.949Z,2.18
2023-02-09T16:25:23.931Z,2.17
2023-02-09T16:27:54.425Z,2.25
2023-02-09T16:30:26.642Z,2.24
2023-02-09T16:32:56.751Z,2.22
2023-02-09T16:35:26.320Z,2.25
2023-02-09T16:37:56.238Z,2.27
2023-02-09T16:40:29.306Z,2.30
2023-02-09T16:43:00.213Z,2.31
2023-02-09T16:45:31.493Z,2.32
2023-02-09T16:48:00.598Z,2.34
2023-02-09T16:50:33.360Z,2.36
2023-02-09T16:53:05.426Z,2.36
2023-02-09T16:55:36.999Z,2.37
2023-02-09T16:58:07.025Z,2.35
2023-02-09T17:00:38.867Z,2.37
2023-02-09T17:03:15.378Z,2.36
2023-02-09T17:05:48.470Z,2.34
2023-02-09T17:08:20.510Z,2.41
2023-02-09T17:10:52.545Z,2.38
2023-02-09T17:13:21.766Z,2.36
2023-02-09T17:15:53.590Z,2.37
2023-02-09T17:18:25.732Z,2.42
2023-02-09T17:20:56.920Z,2.37
2023-02-09T17:23:28.347Z,2.38
2023-02-09T17:25:59.290Z,2.36
2023-02-09T17:28:30.765Z,2.43
2023-02-09T17:31:01.832Z,2.38
2023-02-09T17:33:33.035Z,2.35
2023-02-09T17:38:52.758Z,2.37
2023-02-09T17:41:29.308Z,2.42
2023-02-09T17:44:17.569Z,2.43
2023-02-09T17:46:50.057Z,2.37
2023-02-09T17:49:19.186Z,2.38
2023-02-09T17:51:49.652Z,2.41
2023-02-09T17:54:20.781Z,2.38
2023-02-09T17:56:51.207Z,2.38
2023-02-09T17:59:21.227Z,2.43
2023-02-09T18:01:50.994Z,2.41
2023-02-09T18:04:22.789Z,2.46
2023-02-09T18:06:51.930Z,2.43
2023-02-09T18:09:21.088Z,2.44
2023-02-09T18:12:02.972Z,2.46
2023-02-09T18:14:34.444Z,2.43
2023-02-09T18:17:03.659Z,2.42
2023-02-09T18:19:33.059Z,2.39
2023-02-09T18:22:03.141Z,2.35
2023-02-09T18:24:34.214Z,2.43
2023-02-09T18:27:05.057Z,2.42
2023-02-09T18:29:34.176Z,2.36
2023-02-09T18:32:04.040Z,2.42
2023-02-09T18:34:37.846Z,2.44
2023-02-09T18:37:17.677Z,2.44
2023-02-09T18:39:52.228Z,2.42
2023-02-09T18:42:23.000Z,2.37
2023-02-09T18:44:52.053Z,2.39
2023-02-09T18:47:23.808Z,2.43
2023-02-09T18:49:56.015Z,2.46
2023-02-09T18:52:27.040Z,2.43
2023-02-09T18:54:57.040Z,2.40
2023-02-09T18:57:37.561Z,2.36
2023-02-09T19:00:10.350Z,2.40
2023-02-09T19:02:45.447Z,2.43
2023-02-09T19:05:19.765Z,2.36
2023-02-09T19:07:49.730Z,2.43
2023-02-09T19:10:23.535Z,2.45
2023-02-09T19:12:59.507Z,2.46
2023-02-09T19:15:40.048Z,2.43
2023-02-09T19:18:15.005Z,2.46
2023-02-09T19:20:50.099Z,2.42
2023-02-09T19:23:23.311Z,2.47
2023-02-09T19:26:01.688Z,2.55
2023-02-09T19:28:37.642Z,2.56
2023-02-09T19:31:17.192Z,2.52
2023-02-09T19:33:49.223Z,2.51
2023-02-09T19:36:18.390Z,2.50
2023-02-09T19:38:48.189Z,2.41
2023-02-09T19:41:17.404Z,2.45
2023-02-09T19:43:47.895Z,2.45
2023-02-09T19:46:18.110Z,2.44
2023-02-09T19:48:47.355Z,2.38
2023-02-09T19:51:16.670Z,2.33
2023-02-09T19:53:46.157Z,2.32
2023-02-09T19:56:17.273Z,2.31
2023-02-09T19:58:47.926Z,2.30
2023-02-09T20:01:23.540Z,2.31
2023-02-09T20:03:53.657Z,2.27
2023-02-09T20:06:23.535Z,2.20
2023-02-09T20:08:52.766Z,2.15
2023-02-09T20:11:24.753Z,2.15
2023-02-09T20:13:57.010Z,2.17
2023-02-09T20:16:29.166Z,2.24
2023-02-09T20:18:58.898Z,2.31
2023-02-09T20:21:28.665Z,2.33
2023-02-09T20:24:02.051Z,2.31
2023-02-09T20:26:32.995Z,2.27
2023-02-09T20:29:05.722Z,2.32
2023-02-09T20:31:38.404Z,2.28
2023-02-09T20:34:10.481Z,2.27
2023-02-09T20:36:44.860Z,2.31
2023-02-09T20:39:16.056Z,2.27
2023-02-09T20:42:37.672Z,2.33
2023-02-09T20:45:31.532Z,2.31
2023-02-09T20:48:01.247Z,2.32
2023-02-09T20:50:36.188Z,2.32
2023-02-09T20:53:07.341Z,2.30
2023-02-09T20:55:37.841Z,2.32
2023-02-09T20:58:07.336Z,2.41
2023-02-09T21:00:40.899Z,2.39
2023-02-09T21:03:11.674Z,2.37
2023-02-09T21:05:42.681Z,2.37
2023-02-09T21:08:18.343Z,2.37
2023-02-09T21:10:48.514Z,2.38
2023-02-09T21:13:20.711Z,2.39
2023-02-09T21:15:52.150Z,2.38
2023-02-09T21:18:21.923Z,2.38
2023-02-09T21:20:51.213Z,2.38
2023-02-09T21:23:21.170Z,2.34
2023-02-09T21:25:50.384Z,2.37
2023-02-09T21:28:19.498Z,2.35
2023-02-09T21:30:50.233Z,2.38
2023-02-09T21:33:19.353Z,2.36
2023-02-09T21:35:48.457Z,2.32
2023-02-09T21:38:17.829Z,2.32
2023-02-09T21:40:47.192Z,2.33
2023-02-09T21:43:16.526Z,2.35
2023-02-09T21:45:45.669Z,2.32
2023-02-09T21:48:16.201Z,2.33
2023-02-09T21:50:45.339Z,2.34
2023-02-09T21:53:14.418Z,2.38
2023-02-09T21:55:43.461Z,2.37
2023-02-09T21:58:12.482Z,2.38
2023-02-09T22:00:41.570Z,2.38
2023-02-09T22:03:11.345Z,2.36
2023-02-09T22:05:42.445Z,2.41
2023-02-09T22:08:12.007Z,2.44
2023-02-09T22:10:41.196Z,2.43
2023-02-09T22:13:10.247Z,2.42
2023-02-09T22:15:42.060Z,2.44
2023-02-09T22:18:11.947Z,2.44
2023-02-09T22:20:43.481Z,2.48
2023-02-09T22:23:12.586Z,2.44
2023-02-09T22:25:41.748Z,2.45
2023-02-09T22:28:10.909Z,2.45
2023-02-09T22:30:40.211Z,2.47
2023-02-09T22:33:09.301Z,2.47
2023-02-09T22:35:42.935Z,2.50
2023-02-09T22:38:11.951Z,2.49
2023-02-09T22:40:40.934Z,2.50
2023-02-09T22:43:09.960Z,2.50
2023-02-09T22:45:39.003Z,2.50
2023-02-09T22:48:08.025Z,2.52
2023-02-09T22:50:38.422Z,2.55
2023-02-09T22:53:09.001Z,2.55
2023-02-09T22:55:38.100Z,2.53
2023-02-09T22:58:07.225Z,2.56
2023-02-09T23:00:36.292Z,2.58
2023-02-09T23:03:05.347Z,2.57
2023-02-09T23:05:35.192Z,2.56
2023-02-09T23:08:04.302Z,2.56
2023-02-09T23:10:34.702Z,2.60
2023-02-09T23:13:03.692Z,2.61
2023-02-09T23:15:32.829Z,2.59
2023-02-09T23:18:02.036Z,2.59
2023-02-09T23:20:31.083Z,2.61
2023-02-09T23:23:05.409Z,2.59
2023-02-09T23:25:35.815Z,2.59
2023-02-09T23:28:04.918Z,2.65
2023-02-09T23:30:35.134Z,2.64
2023-02-09T23:33:04.173Z,2.67
2023-02-09T23:35:33.203Z,2.67
2023-02-09T23:38:02.215Z,2.71
2023-02-09T23:40:31.290Z,2.71
2023-02-09T23:43:01.721Z,2.71
2023-02-09T23:45:30.782Z,2.69
2023-02-09T23:47:59.842Z,2.70
2023-02-09T23:50:28.953Z,2.71
2023-02-09T23:52:58.038Z,2.71
2023-02-09T23:55:27.028Z,2.71
2023-02-09T23:57:56.045Z,2.77
